sensor_id;sensor_type;location;lat;lon;timestamp;P1;durP1;ratioP1;P2;durP2;ratioP2
79677;SDS011;69145;45.544;10.214;2023-06-14T00:01:43;8.68;;;7.47;;
79677;SDS011;69145;45.544;10.214;2023-06-14T00:04:11;10.13;;;7.00;;
79677;SDS011;69145;45.544;10.214;2023-06-14T00:06:37;10.93;;;7.57;;
79677;SDS011;69145;45.544;10.214;2023-06-14T00:09:03;11.57;;;7.60;;
79677;SDS011;69145;45.544;10.214;2023-06-14T00:11:30;10.95;;;7.90;;
79677;SDS011;69145;45.544;10.214;2023-06-14T00:13:56;10.65;;;7.57;;
79677;SDS011;69145;45.544;10.214;2023-06-14T00:16:21;10.77;;;8.38;;
79677;SDS011;69145;45.544;10.214;2023-06-14T00:18:47;9.88;;;7.22;;
79677;SDS011;69145;45.544;10.214;2023-06-14T00:21:13;10.45;;;7.85;;
79677;SDS011;69145;45.544;10.214;2023-06-14T00:23:39;10.02;;;8.85;;
79677;SDS011;69145;45.544;10.214;2023-06-14T00:26:04;10.32;;;7.47;;
79677;SDS011;69145;45.544;10.214;2023-06-14T00:28:30;9.82;;;7.68;;
79677;SDS011;69145;45.544;10.214;2023-06-14T00:30:55;11.75;;;7.28;;
79677;SDS011;69145;45.544;10.214;2023-06-14T00:33:21;8.87;;;6.87;;
79677;SDS011;69145;45.544;10.214;2023-06-14T00:35:46;8.53;;;7.03;;
79677;SDS011;69145;45.544;10.214;2023-06-14T00:38:12;9.20;;;6.63;;
79677;SDS011;69145;45.544;10.214;2023-06-14T00:40:37;8.10;;;5.90;;
79677;SDS011;69145;45.544;10.214;2023-06-14T00:43:03;9.23;;;6.35;;
79677;SDS011;69145;45.544;10.214;2023-06-14T00:45:28;8.02;;;6.22;;
79677;SDS011;69145;45.544;10.214;2023-06-14T00:47:56;9.45;;;6.13;;
79677;SDS011;69145;45.544;10.214;2023-06-14T00:50:21;8.27;;;7.22;;
79677;SDS011;69145;45.544;10.214;2023-06-14T00:52:48;8.10;;;6.15;;
79677;SDS011;69145;45.544;10.214;2023-06-14T00:55:14;8.50;;;6.00;;
79677;SDS011;69145;45.544;10.214;2023-06-14T00:57:39;7.40;;;5.22;;
79677;SDS011;69145;45.544;10.214;2023-06-14T01:00:05;7.38;;;5.97;;
79677;SDS011;69145;45.544;10.214;2023-06-14T01:02:38;6.90;;;5.70;;
79677;SDS011;69145;45.544;10.214;2023-06-14T01:05:04;7.82;;;6.50;;
79677;SDS011;69145;45.544;10.214;2023-06-14T01:15:40;8.10;;;5.78;;
79677;SDS011;69145;45.544;10.214;2023-06-14T01:18:07;8.77;;;7.03;;
79677;SDS011;69145;45.544;10.214;2023-06-14T01:20:33;7.95;;;5.90;;
79677;SDS011;69145;45.544;10.214;2023-06-14T01:23:02;9.02;;;5.85;;
79677;SDS011;69145;45.544;10.214;2023-06-14T01:25:28;8.60;;;6.88;;
79677;SDS011;69145;45.544;10.214;2023-06-14T01:28:00;9.20;;;6.75;;
79677;SDS011;69145;45.544;10.214;2023-06-14T01:30:29;10.40;;;6.35;;
79677;SDS011;69145;45.544;10.214;2023-06-14T01:32:55;8.93;;;6.15;;
79677;SDS011;69145;45.544;10.214;2023-06-14T01:35:22;9.57;;;6.70;;
79677;SDS011;69145;45.544;10.214;2023-06-14T01:37:48;10.25;;;6.53;;
79677;SDS011;69145;45.544;10.214;2023-06-14T01:40:14;8.57;;;7.10;;
79677;SDS011;69145;45.544;10.214;2023-06-14T01:42:40;9.00;;;6.43;;
79677;SDS011;69145;45.544;10.214;2023-06-14T01:45:07;10.10;;;6.85;;
79677;SDS011;69145;45.544;10.214;2023-06-14T01:47:34;8.60;;;5.95;;
79677;SDS011;69145;45.544;10.214;2023-06-14T01:50:01;7.85;;;6.47;;
79677;SDS011;69145;45.544;10.214;2023-06-14T01:52:28;7.63;;;6.45;;
79677;SDS011;69145;45.544;10.214;2023-06-14T01:54:53;7.72;;;6.10;;
79677;SDS011;69145;45.544;10.214;2023-06-14T01:57:18;7.10;;;5.70;;
79677;SDS011;69145;45.544;10.214;2023-06-14T01:59:45;6.97;;;5.32;;
79677;SDS011;69145;45.544;10.214;2023-06-14T02:02:13;8.52;;;6.28;;
79677;SDS011;69145;45.544;10.214;2023-06-14T02:04:39;8.02;;;5.95;;
79677;SDS011;69145;45.544;10.214;2023-06-14T02:07:04;7.97;;;6.97;;
79677;SDS011;69145;45.544;10.214;2023-06-14T02:09:30;7.78;;;6.60;;
79677;SDS011;69145;45.544;10.214;2023-06-14T02:11:55;7.70;;;6.90;;
79677;SDS011;69145;45.544;10.214;2023-06-14T02:14:20;10.90;;;6.10;;
79677;SDS011;69145;45.544;10.214;2023-06-14T02:16:46;8.88;;;5.90;;
79677;SDS011;69145;45.544;10.214;2023-06-14T02:19:15;7.22;;;5.88;;
79677;SDS011;69145;45.544;10.214;2023-06-14T02:21:41;9.02;;;5.93;;
79677;SDS011;69145;45.544;10.214;2023-06-14T02:24:07;7.13;;;5.57;;
79677;SDS011;69145;45.544;10.214;2023-06-14T02:26:32;9.40;;;6.40;;
79677;SDS011;69145;45.544;10.214;2023-06-14T02:28:57;8.65;;;6.03;;
79677;SDS011;69145;45.544;10.214;2023-06-14T02:31:23;7.93;;;5.68;;
79677;SDS011;69145;45.544;10.214;2023-06-14T02:33:48;8.88;;;5.78;;
79677;SDS011;69145;45.544;10.214;2023-06-14T02:36:13;8.93;;;5.37;;
79677;SDS011;69145;45.544;10.214;2023-06-14T02:38:39;7.00;;;5.63;;
79677;SDS011;69145;45.544;10.214;2023-06-14T02:41:04;7.47;;;5.75;;
79677;SDS011;69145;45.544;10.214;2023-06-14T02:43:31;8.95;;;6.00;;
79677;SDS011;69145;45.544;10.214;2023-06-14T02:45:56;7.03;;;5.72;;
79677;SDS011;69145;45.544;10.214;2023-06-14T02:48:21;8.97;;;6.07;;
79677;SDS011;69145;45.544;10.214;2023-06-14T02:50:47;7.97;;;6.00;;
79677;SDS011;69145;45.544;10.214;2023-06-14T02:53:12;9.40;;;5.70;;
79677;SDS011;69145;45.544;10.214;2023-06-14T02:55:37;7.67;;;5.93;;
79677;SDS011;69145;45.544;10.214;2023-06-14T02:58:04;9.45;;;7.05;;
79677;SDS011;69145;45.544;10.214;2023-06-14T03:00:30;7.72;;;5.82;;
79677;SDS011;69145;45.544;10.214;2023-06-14T03:02:56;8.00;;;5.43;;
79677;SDS011;69145;45.544;10.214;2023-06-14T03:05:21;9.73;;;5.70;;
79677;SDS011;69145;45.544;10.214;2023-06-14T03:07:47;7.03;;;5.72;;
79677;SDS011;69145;45.544;10.214;2023-06-14T03:10:12;8.60;;;5.03;;
79677;SDS011;69145;45.544;10.214;2023-06-14T03:12:38;7.50;;;5.30;;
79677;SDS011;69145;45.544;10.214;2023-06-14T03:15:04;8.05;;;5.43;;
79677;SDS011;69145;45.544;10.214;2023-06-14T03:17:30;7.43;;;5.03;;
79677;SDS011;69145;45.544;10.214;2023-06-14T03:19:58;7.60;;;5.90;;
79677;SDS011;69145;45.544;10.214;2023-06-14T03:22:24;8.43;;;5.50;;
79677;SDS011;69145;45.544;10.214;2023-06-14T03:24:50;8.55;;;5.30;;
79677;SDS011;69145;45.544;10.214;2023-06-14T03:27:17;8.02;;;5.05;;
79677;SDS011;69145;45.544;10.214;2023-06-14T03:29:43;6.90;;;4.38;;
79677;SDS011;69145;45.544;10.214;2023-06-14T03:32:09;7.20;;;4.97;;
79677;SDS011;69145;45.544;10.214;2023-06-14T03:34:34;8.23;;;5.00;;
79677;SDS011;69145;45.544;10.214;2023-06-14T03:37:00;9.05;;;5.18;;
79677;SDS011;69145;45.544;10.214;2023-06-14T03:39:26;6.90;;;4.95;;
79677;SDS011;69145;45.544;10.214;2023-06-14T03:41:51;7.40;;;4.80;;
79677;SDS011;69145;45.544;10.214;2023-06-14T03:44:17;7.65;;;4.80;;
79677;SDS011;69145;45.544;10.214;2023-06-14T03:46:44;7.03;;;4.70;;
79677;SDS011;69145;45.544;10.214;2023-06-14T03:49:10;8.25;;;5.18;;
79677;SDS011;69145;45.544;10.214;2023-06-14T03:51:36;7.93;;;4.88;;
79677;SDS011;69145;45.544;10.214;2023-06-14T03:54:02;5.95;;;4.90;;
79677;SDS011;69145;45.544;10.214;2023-06-14T03:56:27;8.65;;;4.88;;
79677;SDS011;69145;45.544;10.214;2023-06-14T03:58:52;6.80;;;4.40;;
79677;SDS011;69145;45.544;10.214;2023-06-14T04:01:18;7.13;;;4.87;;
79677;SDS011;69145;45.544;10.214;2023-06-14T04:03:43;7.67;;;5.77;;
79677;SDS011;69145;45.544;10.214;2023-06-14T04:06:09;8.70;;;4.93;;
79677;SDS011;69145;45.544;10.214;2023-06-14T04:08:34;7.43;;;4.70;;
79677;SDS011;69145;45.544;10.214;2023-06-14T04:11:00;9.02;;;4.72;;
79677;SDS011;69145;45.544;10.214;2023-06-14T04:13:25;7.13;;;6.30;;
79677;SDS011;69145;45.544;10.214;2023-06-14T04:15:51;6.03;;;4.65;;
79677;SDS011;69145;45.544;10.214;2023-06-14T04:18:16;7.95;;;5.00;;
79677;SDS011;69145;45.544;10.214;2023-06-14T04:20:42;6.95;;;5.00;;
79677;SDS011;69145;45.544;10.214;2023-06-14T04:23:15;7.40;;;4.72;;
79677;SDS011;69145;45.544;10.214;2023-06-14T04:25:43;6.07;;;4.22;;
79677;SDS011;69145;45.544;10.214;2023-06-14T04:28:11;6.95;;;4.93;;
79677;SDS011;69145;45.544;10.214;2023-06-14T04:30:37;7.13;;;5.57;;
79677;SDS011;69145;45.544;10.214;2023-06-14T04:33:04;9.23;;;4.88;;
79677;SDS011;69145;45.544;10.214;2023-06-14T04:35:31;7.47;;;4.80;;
79677;SDS011;69145;45.544;10.214;2023-06-14T04:38:00;9.65;;;5.80;;
79677;SDS011;69145;45.544;10.214;2023-06-14T04:40:26;7.85;;;4.80;;
79677;SDS011;69145;45.544;10.214;2023-06-14T04:42:52;7.37;;;4.90;;
79677;SDS011;69145;45.544;10.214;2023-06-14T04:45:17;8.02;;;4.63;;
79677;SDS011;69145;45.544;10.214;2023-06-14T04:47:43;7.55;;;5.32;;
79677;SDS011;69145;45.544;10.214;2023-06-14T04:50:09;6.50;;;4.43;;
79677;SDS011;69145;45.544;10.214;2023-06-14T04:52:35;7.13;;;4.60;;
79677;SDS011;69145;45.544;10.214;2023-06-14T04:55:02;7.63;;;4.78;;
79677;SDS011;69145;45.544;10.214;2023-06-14T04:57:27;7.57;;;4.82;;
79677;SDS011;69145;45.544;10.214;2023-06-14T04:59:54;7.30;;;5.10;;
79677;SDS011;69145;45.544;10.214;2023-06-14T05:02:20;8.02;;;4.50;;
79677;SDS011;69145;45.544;10.214;2023-06-14T05:04:49;6.90;;;4.40;;
79677;SDS011;69145;45.544;10.214;2023-06-14T05:07:15;6.65;;;4.47;;
79677;SDS011;69145;45.544;10.214;2023-06-14T05:09:40;7.80;;;4.70;;
79677;SDS011;69145;45.544;10.214;2023-06-14T05:12:05;6.50;;;4.10;;
79677;SDS011;69145;45.544;10.214;2023-06-14T05:14:34;6.18;;;4.30;;
79677;SDS011;69145;45.544;10.214;2023-06-14T05:17:00;8.05;;;4.03;;
79677;SDS011;69145;45.544;10.214;2023-06-14T05:19:27;6.90;;;3.92;;
79677;SDS011;69145;45.544;10.214;2023-06-14T05:21:53;8.27;;;4.28;;
79677;SDS011;69145;45.544;10.214;2023-06-14T05:24:19;6.05;;;3.88;;
79677;SDS011;69145;45.544;10.214;2023-06-14T05:26:44;6.15;;;4.05;;
79677;SDS011;69145;45.544;10.214;2023-06-14T05:29:10;6.55;;;3.70;;
79677;SDS011;69145;45.544;10.214;2023-06-14T05:31:36;6.60;;;4.10;;
79677;SDS011;69145;45.544;10.214;2023-06-14T05:34:01;6.95;;;4.35;;
79677;SDS011;69145;45.544;10.214;2023-06-14T05:36:27;8.13;;;4.67;;
79677;SDS011;69145;45.544;10.214;2023-06-14T05:38:53;7.10;;;4.07;;
79677;SDS011;69145;45.544;10.214;2023-06-14T05:41:27;6.82;;;4.30;;
79677;SDS011;69145;45.544;10.214;2023-06-14T05:43:53;5.93;;;4.28;;
79677;SDS011;69145;45.544;10.214;2023-06-14T05:46:19;5.65;;;4.30;;
79677;SDS011;69145;45.544;10.214;2023-06-14T05:48:47;6.65;;;3.95;;
79677;SDS011;69145;45.544;10.214;2023-06-14T05:51:13;7.47;;;3.83;;
79677;SDS011;69145;45.544;10.214;2023-06-14T05:53:39;5.82;;;3.97;;
79677;SDS011;69145;45.544;10.214;2023-06-14T05:56:05;6.50;;;4.10;;
79677;SDS011;69145;45.544;10.214;2023-06-14T05:58:30;6.07;;;3.92;;
79677;SDS011;69145;45.544;10.214;2023-06-14T06:00:55;7.47;;;4.60;;
79677;SDS011;69145;45.544;10.214;2023-06-14T06:03:22;8.43;;;4.55;;
79677;SDS011;69145;45.544;10.214;2023-06-14T06:05:47;7.55;;;4.38;;
79677;SDS011;69145;45.544;10.214;2023-06-14T06:08:13;6.50;;;4.10;;
79677;SDS011;69145;45.544;10.214;2023-06-14T06:10:38;6.43;;;4.10;;
79677;SDS011;69145;45.544;10.214;2023-06-14T06:13:04;7.25;;;4.10;;
79677;SDS011;69145;45.544;10.214;2023-06-14T06:15:29;7.50;;;5.10;;
79677;SDS011;69145;45.544;10.214;2023-06-14T06:17:55;6.53;;;4.05;;
79677;SDS011;69145;45.544;10.214;2023-06-14T06:20:20;7.43;;;4.38;;
79677;SDS011;69145;45.544;10.214;2023-06-14T06:22:46;9.25;;;4.60;;
79677;SDS011;69145;45.544;10.214;2023-06-14T06:25:11;8.83;;;4.63;;
79677;SDS011;69145;45.544;10.214;2023-06-14T06:27:37;6.90;;;4.33;;
79677;SDS011;69145;45.544;10.214;2023-06-14T06:30:03;12.30;;;4.40;;
79677;SDS011;69145;45.544;10.214;2023-06-14T06:32:29;5.82;;;4.40;;
79677;SDS011;69145;45.544;10.214;2023-06-14T06:34:54;7.67;;;4.73;;
79677;SDS011;69145;45.544;10.214;2023-06-14T06:37:20;7.25;;;4.53;;
79677;SDS011;69145;45.544;10.214;2023-06-14T06:39:45;7.05;;;4.50;;
79677;SDS011;69145;45.544;10.214;2023-06-14T06:42:11;7.10;;;4.17;;
79677;SDS011;69145;45.544;10.214;2023-06-14T06:44:37;6.13;;;4.05;;
79677;SDS011;69145;45.544;10.214;2023-06-14T06:47:02;7.17;;;5.27;;
79677;SDS011;69145;45.544;10.214;2023-06-14T06:49:28;6.13;;;4.00;;
79677;SDS011;69145;45.544;10.214;2023-06-14T06:52:03;7.55;;;3.63;;
79677;SDS011;69145;45.544;10.214;2023-06-14T06:54:30;6.65;;;4.07;;
79677;SDS011;69145;45.544;10.214;2023-06-14T06:56:56;6.38;;;4.07;;
79677;SDS011;69145;45.544;10.214;2023-06-14T06:59:22;11.00;;;4.10;;
79677;SDS011;69145;45.544;10.214;2023-06-14T07:01:47;7.10;;;3.97;;
79677;SDS011;69145;45.544;10.214;2023-06-14T07:04:12;8.32;;;4.45;;
79677;SDS011;69145;45.544;10.214;2023-06-14T07:06:38;7.88;;;4.30;;
79677;SDS011;69145;45.544;10.214;2023-06-14T07:09:03;5.63;;;3.85;;
79677;SDS011;69145;45.544;10.214;2023-06-14T07:11:31;6.00;;;4.00;;
79677;SDS011;69145;45.544;10.214;2023-06-14T07:13:57;7.00;;;4.03;;
79677;SDS011;69145;45.544;10.214;2023-06-14T07:16:22;6.28;;;4.13;;
79677;SDS011;69145;45.544;10.214;2023-06-14T07:18:48;7.78;;;4.45;;
79677;SDS011;69145;45.544;10.214;2023-06-14T07:21:13;6.90;;;3.70;;
79677;SDS011;69145;45.544;10.214;2023-06-14T07:23:39;7.70;;;3.63;;
79677;SDS011;69145;45.544;10.214;2023-06-14T07:26:04;8.37;;;4.13;;
79677;SDS011;69145;45.544;10.214;2023-06-14T07:28:30;6.70;;;4.05;;
79677;SDS011;69145;45.544;10.214;2023-06-14T07:30:55;6.30;;;4.37;;
79677;SDS011;69145;45.544;10.214;2023-06-14T07:33:20;5.97;;;4.20;;
79677;SDS011;69145;45.544;10.214;2023-06-14T07:35:46;7.70;;;4.30;;
79677;SDS011;69145;45.544;10.214;2023-06-14T07:38:12;7.75;;;4.10;;
79677;SDS011;69145;45.544;10.214;2023-06-14T07:40:38;10.95;;;5.20;;
79677;SDS011;69145;45.544;10.214;2023-06-14T07:43:03;9.23;;;4.57;;
79677;SDS011;69145;45.544;10.214;2023-06-14T07:45:29;12.25;;;5.07;;
79677;SDS011;69145;45.544;10.214;2023-06-14T07:47:54;10.32;;;4.68;;
79677;SDS011;69145;45.544;10.214;2023-06-14T07:50:20;8.18;;;5.00;;
79677;SDS011;69145;45.544;10.214;2023-06-14T07:52:45;9.10;;;4.43;;
79677;SDS011;69145;45.544;10.214;2023-06-14T07:55:11;7.47;;;4.43;;
79677;SDS011;69145;45.544;10.214;2023-06-14T07:57:37;8.77;;;5.40;;
79677;SDS011;69145;45.544;10.214;2023-06-14T08:00:03;10.50;;;4.55;;
79677;SDS011;69145;45.544;10.214;2023-06-14T08:02:31;8.25;;;4.32;;
79677;SDS011;69145;45.544;10.214;2023-06-14T08:04:57;6.78;;;5.43;;
79677;SDS011;69145;45.544;10.214;2023-06-14T08:07:23;8.88;;;4.75;;
79677;SDS011;69145;45.544;10.214;2023-06-14T08:09:49;8.73;;;5.57;;
79677;SDS011;69145;45.544;10.214;2023-06-14T08:12:14;12.13;;;5.05;;
79677;SDS011;69145;45.544;10.214;2023-06-14T08:14:39;8.20;;;4.00;;
79677;SDS011;69145;45.544;10.214;2023-06-14T08:17:05;8.52;;;4.40;;
79677;SDS011;69145;45.544;10.214;2023-06-14T08:19:30;7.25;;;4.38;;
79677;SDS011;69145;45.544;10.214;2023-06-14T08:21:56;7.93;;;4.25;;
79677;SDS011;69145;45.544;10.214;2023-06-14T08:24:22;7.15;;;4.50;;
79677;SDS011;69145;45.544;10.214;2023-06-14T08:26:52;6.13;;;4.63;;
79677;SDS011;69145;45.544;10.214;2023-06-14T08:29:21;6.90;;;4.07;;
79677;SDS011;69145;45.544;10.214;2023-06-14T08:31:46;7.65;;;4.28;;
79677;SDS011;69145;45.544;10.214;2023-06-14T08:34:12;8.23;;;5.00;;
79677;SDS011;69145;45.544;10.214;2023-06-14T08:36:37;7.28;;;4.50;;
79677;SDS011;69145;45.544;10.214;2023-06-14T08:39:03;8.70;;;4.72;;
79677;SDS011;69145;45.544;10.214;2023-06-14T08:41:28;6.60;;;4.70;;
79677;SDS011;69145;45.544;10.214;2023-06-14T08:43:54;8.02;;;4.53;;
79677;SDS011;69145;45.544;10.214;2023-06-14T08:46:21;10.23;;;5.80;;
79677;SDS011;69145;45.544;10.214;2023-06-14T08:48:50;9.82;;;5.40;;
79677;SDS011;69145;45.544;10.214;2023-06-14T08:51:18;8.02;;;5.07;;
79677;SDS011;69145;45.544;10.214;2023-06-14T08:53:44;8.65;;;5.38;;
79677;SDS011;69145;45.544;10.214;2023-06-14T08:56:10;7.13;;;5.13;;
79677;SDS011;69145;45.544;10.214;2023-06-14T08:58:39;7.40;;;5.00;;
79677;SDS011;69145;45.544;10.214;2023-06-14T09:01:10;6.97;;;4.88;;
79677;SDS011;69145;45.544;10.214;2023-06-14T09:03:40;9.40;;;5.55;;
79677;SDS011;69145;45.544;10.214;2023-06-14T09:06:06;7.65;;;5.28;;
79677;SDS011;69145;45.544;10.214;2023-06-14T09:08:34;7.65;;;5.03;;
79677;SDS011;69145;45.544;10.214;2023-06-14T09:11:01;9.35;;;5.47;;
79677;SDS011;69145;45.544;10.214;2023-06-14T09:13:26;8.77;;;5.70;;
79677;SDS011;69145;45.544;10.214;2023-06-14T09:15:52;8.35;;;5.38;;
79677;SDS011;69145;45.544;10.214;2023-06-14T09:18:18;10.13;;;5.85;;
79677;SDS011;69145;45.544;10.214;2023-06-14T09:20:45;8.57;;;5.55;;
79677;SDS011;69145;45.544;10.214;2023-06-14T09:23:12;6.90;;;5.30;;
79677;SDS011;69145;45.544;10.214;2023-06-14T09:25:41;7.53;;;5.72;;
79677;SDS011;69145;45.544;10.214;2023-06-14T09:28:10;7.35;;;5.45;;
79677;SDS011;69145;45.544;10.214;2023-06-14T09:30:39;8.88;;;5.72;;
79677;SDS011;69145;45.544;10.214;2023-06-14T09:33:04;8.80;;;5.72;;
79677;SDS011;69145;45.544;10.214;2023-06-14T09:35:33;7.45;;;5.32;;
79677;SDS011;69145;45.544;10.214;2023-06-14T09:37:58;7.95;;;5.60;;
79677;SDS011;69145;45.544;10.214;2023-06-14T09:40:24;7.70;;;5.30;;
79677;SDS011;69145;45.544;10.214;2023-06-14T09:42:49;8.38;;;5.88;;
79677;SDS011;69145;45.544;10.214;2023-06-14T09:45:16;8.75;;;4.80;;
79677;SDS011;69145;45.544;10.214;2023-06-14T09:47:47;6.32;;;5.03;;
79677;SDS011;69145;45.544;10.214;2023-06-14T09:50:14;7.70;;;5.38;;
79677;SDS011;69145;45.544;10.214;2023-06-14T09:52:39;7.80;;;5.18;;
79677;SDS011;69145;45.544;10.214;2023-06-14T09:55:12;6.93;;;5.28;;
79677;SDS011;69145;45.544;10.214;2023-06-14T09:57:40;9.75;;;5.35;;
79677;SDS011;69145;45.544;10.214;2023-06-14T10:00:07;8.85;;;4.88;;
79677;SDS011;69145;45.544;10.214;2023-06-14T10:02:37;7.95;;;4.85;;
79677;SDS011;69145;45.544;10.214;2023-06-14T10:10:18;7.07;;;5.00;;
79677;SDS011;69145;45.544;10.214;2023-06-14T10:12:44;7.85;;;4.80;;
79677;SDS011;69145;45.544;10.214;2023-06-14T10:15:10;8.10;;;4.63;;
79677;SDS011;69145;45.544;10.214;2023-06-14T10:17:45;7.13;;;4.72;;
79677;SDS011;69145;45.544;10.214;2023-06-14T10:20:26;8.55;;;5.22;;
79677;SDS011;69145;45.544;10.214;2023-06-14T10:23:06;6.85;;;4.95;;
79677;SDS011;69145;45.544;10.214;2023-06-14T10:25:36;7.55;;;5.13;;
79677;SDS011;69145;45.544;10.214;2023-06-14T10:28:15;6.97;;;6.07;;
79677;SDS011;69145;45.544;10.214;2023-06-14T10:31:06;7.25;;;4.82;;
79677;SDS011;69145;45.544;10.214;2023-06-14T10:33:33;6.72;;;4.78;;
79677;SDS011;69145;45.544;10.214;2023-06-14T10:36:08;7.05;;;4.88;;
79677;SDS011;69145;45.544;10.214;2023-06-14T10:41:25;7.68;;;4.57;;
79677;SDS011;69145;45.544;10.214;2023-06-14T10:46:38;8.30;;;4.63;;
79677;SDS011;69145;45.544;10.214;2023-06-14T10:57:38;7.60;;;5.43;;
79677;SDS011;69145;45.544;10.214;2023-06-14T11:00:05;8.27;;;4.85;;
79677;SDS011;69145;45.544;10.214;2023-06-14T11:10:44;6.03;;;4.28;;
79677;SDS011;69145;45.544;10.214;2023-06-14T11:13:12;6.85;;;4.93;;
79677;SDS011;69145;45.544;10.214;2023-06-14T11:15:43;5.70;;;4.72;;
79677;SDS011;69145;45.544;10.214;2023-06-14T11:18:10;8.23;;;4.80;;
79677;SDS011;69145;45.544;10.214;2023-06-14T11:20:39;9.15;;;4.72;;
79677;SDS011;69145;45.544;10.214;2023-06-14T11:23:05;7.75;;;4.88;;
79677;SDS011;69145;45.544;10.214;2023-06-14T11:25:30;7.32;;;4.15;;
79677;SDS011;69145;45.544;10.214;2023-06-14T11:27:56;6.78;;;5.20;;
79677;SDS011;69145;45.544;10.214;2023-06-14T11:30:23;7.43;;;4.60;;
79677;SDS011;69145;45.544;10.214;2023-06-14T11:32:50;6.50;;;4.82;;
79677;SDS011;69145;45.544;10.214;2023-06-14T11:35:17;5.88;;;4.63;;
79677;SDS011;69145;45.544;10.214;2023-06-14T11:37:44;6.80;;;5.30;;
79677;SDS011;69145;45.544;10.214;2023-06-14T11:40:10;6.65;;;4.65;;
79677;SDS011;69145;45.544;10.214;2023-06-14T11:42:36;6.30;;;4.20;;
79677;SDS011;69145;45.544;10.214;2023-06-14T11:45:03;8.15;;;4.82;;
79677;SDS011;69145;45.544;10.214;2023-06-14T11:47:33;6.03;;;4.40;;
79677;SDS011;69145;45.544;10.214;2023-06-14T11:50:00;5.88;;;4.40;;
79677;SDS011;69145;45.544;10.214;2023-06-14T11:52:26;6.07;;;4.70;;
79677;SDS011;69145;45.544;10.214;2023-06-14T11:54:52;6.88;;;4.40;;
79677;SDS011;69145;45.544;10.214;2023-06-14T11:57:18;6.88;;;4.63;;
79677;SDS011;69145;45.544;10.214;2023-06-14T11:59:44;7.10;;;4.28;;
79677;SDS011;69145;45.544;10.214;2023-06-14T12:02:16;6.75;;;4.25;;
79677;SDS011;69145;45.544;10.214;2023-06-14T12:04:43;5.65;;;4.03;;
79677;SDS011;69145;45.544;10.214;2023-06-14T12:07:12;5.90;;;4.07;;
79677;SDS011;69145;45.544;10.214;2023-06-14T12:10:04;7.45;;;4.50;;
79677;SDS011;69145;45.544;10.214;2023-06-14T12:12:34;6.90;;;4.20;;
79677;SDS011;69145;45.544;10.214;2023-06-14T12:15:02;7.03;;;4.20;;
79677;SDS011;69145;45.544;10.214;2023-06-14T12:17:33;5.97;;;4.00;;
79677;SDS011;69145;45.544;10.214;2023-06-14T12:20:04;6.47;;;4.32;;
79677;SDS011;69145;45.544;10.214;2023-06-14T12:22:33;5.13;;;3.80;;
79677;SDS011;69145;45.544;10.214;2023-06-14T12:24:59;6.70;;;4.10;;
79677;SDS011;69145;45.544;10.214;2023-06-14T12:27:25;7.03;;;3.90;;
79677;SDS011;69145;45.544;10.214;2023-06-14T12:30:03;5.55;;;3.75;;
79677;SDS011;69145;45.544;10.214;2023-06-14T12:32:29;6.25;;;4.55;;
79677;SDS011;69145;45.544;10.214;2023-06-14T12:34:55;6.72;;;4.22;;
79677;SDS011;69145;45.544;10.214;2023-06-14T12:37:20;6.10;;;3.90;;
79677;SDS011;69145;45.544;10.214;2023-06-14T12:39:46;6.40;;;3.97;;
79677;SDS011;69145;45.544;10.214;2023-06-14T12:42:12;6.18;;;3.83;;
79677;SDS011;69145;45.544;10.214;2023-06-14T12:44:39;7.07;;;4.30;;
79677;SDS011;69145;45.544;10.214;2023-06-14T12:47:06;5.68;;;3.65;;
79677;SDS011;69145;45.544;10.214;2023-06-14T12:49:34;6.00;;;3.75;;
79677;SDS011;69145;45.544;10.214;2023-06-14T12:51:59;5.23;;;4.37;;
79677;SDS011;69145;45.544;10.214;2023-06-14T12:54:24;4.82;;;3.75;;
79677;SDS011;69145;45.544;10.214;2023-06-14T12:56:52;4.93;;;3.75;;
79677;SDS011;69145;45.544;10.214;2023-06-14T12:59:19;6.35;;;3.72;;
79677;SDS011;69145;45.544;10.214;2023-06-14T13:01:45;5.18;;;3.78;;
79677;SDS011;69145;45.544;10.214;2023-06-14T13:04:12;6.13;;;3.78;;
79677;SDS011;69145;45.544;10.214;2023-06-14T13:06:37;5.57;;;3.40;;
79677;SDS011;69145;45.544;10.214;2023-06-14T13:09:03;7.67;;;4.10;;
79677;SDS011;69145;45.544;10.214;2023-06-14T13:11:29;5.90;;;4.20;;
79677;SDS011;69145;45.544;10.214;2023-06-14T13:13:55;5.88;;;4.10;;
79677;SDS011;69145;45.544;10.214;2023-06-14T13:16:20;6.05;;;4.20;;
79677;SDS011;69145;45.544;10.214;2023-06-14T13:18:46;6.53;;;4.40;;
79677;SDS011;69145;45.544;10.214;2023-06-14T13:21:11;6.60;;;4.88;;
79677;SDS011;69145;45.544;10.214;2023-06-14T13:23:36;5.43;;;3.80;;
79677;SDS011;69145;45.544;10.214;2023-06-14T13:26:02;5.07;;;3.67;;
79677;SDS011;69145;45.544;10.214;2023-06-14T13:28:27;5.90;;;3.90;;
79677;SDS011;69145;45.544;10.214;2023-06-14T13:30:56;6.18;;;4.53;;
79677;SDS011;69145;45.544;10.214;2023-06-14T13:33:22;7.13;;;4.03;;
79677;SDS011;69145;45.544;10.214;2023-06-14T13:35:49;5.43;;;3.70;;
79677;SDS011;69145;45.544;10.214;2023-06-14T13:38:15;7.00;;;4.55;;
79677;SDS011;69145;45.544;10.214;2023-06-14T13:40:40;5.53;;;4.13;;
79677;SDS011;69145;45.544;10.214;2023-06-14T13:43:06;5.40;;;4.25;;
79677;SDS011;69145;45.544;10.214;2023-06-14T13:45:31;6.32;;;4.18;;
79677;SDS011;69145;45.544;10.214;2023-06-14T13:47:56;7.93;;;4.37;;
79677;SDS011;69145;45.544;10.214;2023-06-14T13:50:22;4.93;;;3.30;;
79677;SDS011;69145;45.544;10.214;2023-06-14T13:52:47;7.38;;;3.60;;
79677;SDS011;69145;45.544;10.214;2023-06-14T13:55:13;5.80;;;3.77;;
79677;SDS011;69145;45.544;10.214;2023-06-14T13:57:39;6.80;;;4.18;;
79677;SDS011;69145;45.544;10.214;2023-06-14T14:00:04;6.18;;;4.20;;
79677;SDS011;69145;45.544;10.214;2023-06-14T14:02:30;5.35;;;3.75;;
79677;SDS011;69145;45.544;10.214;2023-06-14T14:04:56;6.63;;;4.75;;
79677;SDS011;69145;45.544;10.214;2023-06-14T14:07:22;5.32;;;3.92;;
79677;SDS011;69145;45.544;10.214;2023-06-14T14:09:48;7.43;;;4.10;;
79677;SDS011;69145;45.544;10.214;2023-06-14T14:12:14;6.00;;;4.18;;
79677;SDS011;69145;45.544;10.214;2023-06-14T14:14:40;5.68;;;4.07;;
79677;SDS011;69145;45.544;10.214;2023-06-14T14:19:58;6.38;;;4.25;;
79677;SDS011;69145;45.544;10.214;2023-06-14T14:22:37;6.35;;;4.20;;
79677;SDS011;69145;45.544;10.214;2023-06-14T14:25:06;6.15;;;3.80;;
79677;SDS011;69145;45.544;10.214;2023-06-14T14:27:35;6.13;;;3.95;;
79677;SDS011;69145;45.544;10.214;2023-06-14T14:30:02;6.53;;;3.85;;
79677;SDS011;69145;45.544;10.214;2023-06-14T14:32:28;6.45;;;3.92;;
79677;SDS011;69145;45.544;10.214;2023-06-14T14:34:53;5.72;;;4.10;;
79677;SDS011;69145;45.544;10.214;2023-06-14T14:37:28;5.35;;;3.50;;
79677;SDS011;69145;45.544;10.214;2023-06-14T14:39:53;5.28;;;3.60;;
79677;SDS011;69145;45.544;10.214;2023-06-14T14:42:19;5.43;;;3.92;;
79677;SDS011;69145;45.544;10.214;2023-06-14T14:44:44;6.75;;;3.92;;
79677;SDS011;69145;45.544;10.214;2023-06-14T14:47:10;5.20;;;3.67;;
79677;SDS011;69145;45.544;10.214;2023-06-14T14:49:35;5.50;;;3.70;;
79677;SDS011;69145;45.544;10.214;2023-06-14T14:52:01;5.00;;;3.50;;
79677;SDS011;69145;45.544;10.214;2023-06-14T14:54:27;5.20;;;4.05;;
79677;SDS011;69145;45.544;10.214;2023-06-14T14:56:54;5.78;;;3.50;;
79677;SDS011;69145;45.544;10.214;2023-06-14T14:59:20;6.82;;;4.82;;
79677;SDS011;69145;45.544;10.214;2023-06-14T15:01:47;5.75;;;3.42;;
79677;SDS011;69145;45.544;10.214;2023-06-14T15:04:12;4.72;;;3.33;;
79677;SDS011;69145;45.544;10.214;2023-06-14T15:06:38;5.80;;;3.88;;
79677;SDS011;69145;45.544;10.214;2023-06-14T15:09:06;6.80;;;4.03;;